Terminal Aerodrome Forecast
Issued by NWS

Home | Current Version | Previous Version | Text Only | Print | Product List | Glossary On
Versions: 1 2 3 4 5 6 7 8 9 10 11 12 13
000
FTUS45 KREV 241120
TAFCXP
TAF
KCXP 241120Z 2412/2512 VRB04KT P6SM SCT050 SCT110 SCT200
     FM241700 20010KT P6SM VCSH SCT050 BKN100 WS020/23040KT
     FM242000 21012G24KT P6SM VCSH SCT040 BKN080 WS020/24045KT
     FM242300 21016G28KT P6SM -SHRA BKN040 OVC070 WS020/25045KT
     FM250300 25010G16KT P6SM VCSH SCT040 BKN090
     FM250800 29011KT P6SM SCT070 BKN120=

USA.gov is the U.S. government's official web portal to all federal, state and local government web resources and services.